LSGC Airport Information

Runway Information
Runway 06 Length 3707 ft width 89 ft
Elevation 3368 ft Threshold 230 ft Heading 54
Runway 24 Length 3707 ft Width 89 ft
Elevation 3343 ft Threshold 328 ft Heading 234
Airport Frequencies
Type TWR Name TWR Frequency 118.125 MHZ
Airport Navaids
Type NDB Name Les Eplatures Frequency 403 KHZ
Airport Weather Information & NOTAM
ADDS - METARS form results

(1133 UTC 21 April 2018)
 
METAR text: LSGC 211120Z VRB04KT CAVOK 21/05 Q1023
Conditions at: LSGC (LES EPLATURES , CH) observed 1120 UTC 21 April 2018
Temperature: 21.0°C (70°F)
Dewpoint: 5.0°C (41°F) [RH = 35%]
Pressure (altimeter): 30.21 inches Hg (1023.0 mb)
Winds: variable direction winds at 5 MPH (4 knots; 2.1 m/s)
Visibility: 6 or more miles (10+ km)
Ceiling: ceiling and visibility are OK
Clouds: unknown
Weather: no significant weather observed at this time

METAR text: LSGC 211050Z VRB04KT CAVOK 21/06 Q1023
Conditions at: LSGC (LES EPLATURES , CH) observed 1050 UTC 21 April 2018
Temperature: 21.0°C (70°F)
Dewpoint: 6.0°C (43°F) [RH = 38%]
Pressure (altimeter): 30.21 inches Hg (1023.0 mb)
Winds: variable direction winds at 5 MPH (4 knots; 2.1 m/s)
Visibility: 6 or more miles (10+ km)
Ceiling: ceiling and visibility are OK
Clouds: unknown
Weather: no significant weather observed at this time